sensor_id;sensor_type;location;lat;lon;timestamp;P1;durP1;ratioP1;P2;durP2;ratioP2
17773;SDS011;9011;33.236;-97.118;2022-09-09T00:01:17;4.45;;;3.20;;
17773;SDS011;9011;33.236;-97.118;2022-09-09T00:03:59;3.50;;;3.20;;
17773;SDS011;9011;33.236;-97.118;2022-09-09T00:06:33;4.25;;;3.22;;
17773;SDS011;9011;33.236;-97.118;2022-09-09T00:09:12;3.75;;;3.42;;
17773;SDS011;9011;33.236;-97.118;2022-09-09T00:11:43;4.40;;;3.53;;
17773;SDS011;9011;33.236;-97.118;2022-09-09T00:14:21;7.93;;;3.20;;
17773;SDS011;9011;33.236;-97.118;2022-09-09T00:16:58;3.20;;;2.90;;
17773;SDS011;9011;33.236;-97.118;2022-09-09T00:19:35;3.47;;;3.17;;
17773;SDS011;9011;33.236;-97.118;2022-09-09T00:22:14;4.57;;;3.25;;
17773;SDS011;9011;33.236;-97.118;2022-09-09T00:24:45;4.05;;;3.15;;
17773;SDS011;9011;33.236;-97.118;2022-09-09T00:27:18;4.45;;;3.20;;
17773;SDS011;9011;33.236;-97.118;2022-09-09T00:29:55;6.65;;;3.40;;
17773;SDS011;9011;33.236;-97.118;2022-09-09T00:32:28;7.05;;;2.97;;
17773;SDS011;9011;33.236;-97.118;2022-09-09T00:35:02;7.32;;;3.33;;
17773;SDS011;9011;33.236;-97.118;2022-09-09T00:37:41;8.45;;;3.42;;
17773;SDS011;9011;33.236;-97.118;2022-09-09T00:40:15;6.93;;;3.35;;
17773;SDS011;9011;33.236;-97.118;2022-09-09T00:42:52;7.15;;;3.33;;
17773;SDS011;9011;33.236;-97.118;2022-09-09T00:45:37;5.30;;;3.30;;
17773;SDS011;9011;33.236;-97.118;2022-09-09T00:48:16;7.03;;;3.47;;
17773;SDS011;9011;33.236;-97.118;2022-09-09T00:50:47;4.90;;;3.38;;
17773;SDS011;9011;33.236;-97.118;2022-09-09T00:53:24;5.00;;;3.38;;
17773;SDS011;9011;33.236;-97.118;2022-09-09T00:56:07;6.00;;;3.85;;
17773;SDS011;9011;33.236;-97.118;2022-09-09T00:58:41;7.03;;;3.55;;
17773;SDS011;9011;33.236;-97.118;2022-09-09T01:01:10;5.05;;;3.65;;
17773;SDS011;9011;33.236;-97.118;2022-09-09T01:03:42;8.25;;;3.47;;
17773;SDS011;9011;33.236;-97.118;2022-09-09T01:06:19;4.93;;;3.40;;
17773;SDS011;9011;33.236;-97.118;2022-09-09T01:09:11;6.95;;;3.50;;
17773;SDS011;9011;33.236;-97.118;2022-09-09T01:11:52;5.65;;;3.28;;
17773;SDS011;9011;33.236;-97.118;2022-09-09T01:14:39;6.40;;;3.33;;
17773;SDS011;9011;33.236;-97.118;2022-09-09T01:17:12;3.85;;;3.00;;
17773;SDS011;9011;33.236;-97.118;2022-09-09T01:19:55;5.85;;;3.72;;
17773;SDS011;9011;33.236;-97.118;2022-09-09T01:22:35;4.97;;;3.30;;
17773;SDS011;9011;33.236;-97.118;2022-09-09T01:25:21;4.65;;;3.60;;
17773;SDS011;9011;33.236;-97.118;2022-09-09T01:27:57;9.57;;;3.30;;
17773;SDS011;9011;33.236;-97.118;2022-09-09T01:30:37;7.22;;;3.78;;
17773;SDS011;9011;33.236;-97.118;2022-09-09T01:33:07;8.02;;;3.80;;
17773;SDS011;9011;33.236;-97.118;2022-09-09T01:35:42;9.52;;;3.58;;
17773;SDS011;9011;33.236;-97.118;2022-09-09T01:38:16;6.47;;;3.92;;
17773;SDS011;9011;33.236;-97.118;2022-09-09T01:40:45;6.68;;;3.72;;
17773;SDS011;9011;33.236;-97.118;2022-09-09T01:43:16;6.82;;;3.78;;
17773;SDS011;9011;33.236;-97.118;2022-09-09T01:45:45;9.57;;;4.10;;
17773;SDS011;9011;33.236;-97.118;2022-09-09T01:48:16;5.85;;;3.70;;
17773;SDS011;9011;33.236;-97.118;2022-09-09T01:50:46;6.57;;;3.92;;
17773;SDS011;9011;33.236;-97.118;2022-09-09T01:53:14;7.10;;;3.50;;
17773;SDS011;9011;33.236;-97.118;2022-09-09T01:55:48;6.00;;;3.83;;
17773;SDS011;9011;33.236;-97.118;2022-09-09T01:58:29;5.55;;;3.33;;
17773;SDS011;9011;33.236;-97.118;2022-09-09T02:01:11;6.05;;;4.13;;
17773;SDS011;9011;33.236;-97.118;2022-09-09T02:03:53;5.70;;;4.10;;
17773;SDS011;9011;33.236;-97.118;2022-09-09T02:09:32;5.95;;;3.80;;
17773;SDS011;9011;33.236;-97.118;2022-09-09T02:12:04;5.82;;;4.40;;
17773;SDS011;9011;33.236;-97.118;2022-09-09T02:14:41;4.35;;;3.70;;
17773;SDS011;9011;33.236;-97.118;2022-09-09T02:17:15;4.43;;;3.65;;
17773;SDS011;9011;33.236;-97.118;2022-09-09T02:19:51;4.20;;;3.80;;
17773;SDS011;9011;33.236;-97.118;2022-09-09T02:22:23;8.80;;;4.05;;
17773;SDS011;9011;33.236;-97.118;2022-09-09T02:24:57;5.50;;;3.80;;
17773;SDS011;9011;33.236;-97.118;2022-09-09T02:27:27;5.43;;;3.35;;
17773;SDS011;9011;33.236;-97.118;2022-09-09T02:29:58;6.05;;;3.88;;
17773;SDS011;9011;33.236;-97.118;2022-09-09T02:32:29;5.25;;;3.58;;
17773;SDS011;9011;33.236;-97.118;2022-09-09T02:35:02;6.20;;;3.58;;
17773;SDS011;9011;33.236;-97.118;2022-09-09T02:37:34;4.85;;;3.72;;
17773;SDS011;9011;33.236;-97.118;2022-09-09T02:40:10;6.72;;;3.83;;
17773;SDS011;9011;33.236;-97.118;2022-09-09T02:42:45;6.00;;;3.85;;
17773;SDS011;9011;33.236;-97.118;2022-09-09T02:45:30;4.38;;;3.45;;
17773;SDS011;9011;33.236;-97.118;2022-09-09T02:48:07;4.57;;;4.15;;
17773;SDS011;9011;33.236;-97.118;2022-09-09T02:51:13;4.93;;;3.50;;
17773;SDS011;9011;33.236;-97.118;2022-09-09T02:54:23;5.30;;;3.90;;
17773;SDS011;9011;33.236;-97.118;2022-09-09T02:58:02;6.25;;;3.75;;
17773;SDS011;9011;33.236;-97.118;2022-09-09T03:01:24;6.50;;;3.72;;
17773;SDS011;9011;33.236;-97.118;2022-09-09T03:04:02;6.20;;;4.03;;
17773;SDS011;9011;33.236;-97.118;2022-09-09T03:06:31;5.05;;;3.45;;
17773;SDS011;9011;33.236;-97.118;2022-09-09T03:08:59;7.47;;;3.55;;
17773;SDS011;9011;33.236;-97.118;2022-09-09T03:11:28;5.90;;;3.45;;
17773;SDS011;9011;33.236;-97.118;2022-09-09T03:13:56;5.60;;;3.40;;
17773;SDS011;9011;33.236;-97.118;2022-09-09T03:16:26;4.63;;;3.47;;
17773;SDS011;9011;33.236;-97.118;2022-09-09T03:19:01;4.75;;;3.45;;
17773;SDS011;9011;33.236;-97.118;2022-09-09T03:21:37;5.47;;;3.90;;
17773;SDS011;9011;33.236;-97.118;2022-09-09T03:24:06;6.47;;;3.38;;
17773;SDS011;9011;33.236;-97.118;2022-09-09T03:26:35;7.78;;;3.58;;
17773;SDS011;9011;33.236;-97.118;2022-09-09T03:29:09;8.15;;;3.60;;
17773;SDS011;9011;33.236;-97.118;2022-09-09T03:31:46;4.15;;;3.20;;
17773;SDS011;9011;33.236;-97.118;2022-09-09T03:34:18;9.45;;;3.88;;
17773;SDS011;9011;33.236;-97.118;2022-09-09T03:36:49;5.72;;;3.50;;
17773;SDS011;9011;33.236;-97.118;2022-09-09T03:39:17;5.32;;;3.40;;
17773;SDS011;9011;33.236;-97.118;2022-09-09T03:41:45;3.60;;;3.15;;
17773;SDS011;9011;33.236;-97.118;2022-09-09T03:44:20;4.45;;;3.90;;
17773;SDS011;9011;33.236;-97.118;2022-09-09T03:46:54;5.43;;;3.08;;
17773;SDS011;9011;33.236;-97.118;2022-09-09T03:49:25;4.75;;;3.50;;
17773;SDS011;9011;33.236;-97.118;2022-09-09T03:51:55;6.38;;;3.58;;
17773;SDS011;9011;33.236;-97.118;2022-09-09T03:54:24;5.07;;;3.10;;
17773;SDS011;9011;33.236;-97.118;2022-09-09T03:56:52;4.15;;;3.42;;
17773;SDS011;9011;33.236;-97.118;2022-09-09T03:59:21;6.50;;;3.92;;
17773;SDS011;9011;33.236;-97.118;2022-09-09T04:01:54;6.47;;;3.53;;
17773;SDS011;9011;33.236;-97.118;2022-09-09T04:04:24;5.28;;;3.70;;
17773;SDS011;9011;33.236;-97.118;2022-09-09T04:06:53;3.22;;;3.00;;
17773;SDS011;9011;33.236;-97.118;2022-09-09T04:09:22;8.52;;;3.78;;
17773;SDS011;9011;33.236;-97.118;2022-09-09T04:11:51;8.68;;;3.92;;
17773;SDS011;9011;33.236;-97.118;2022-09-09T04:14:20;10.40;;;3.97;;
17773;SDS011;9011;33.236;-97.118;2022-09-09T04:16:55;6.15;;;3.70;;
17773;SDS011;9011;33.236;-97.118;2022-09-09T04:19:25;5.35;;;3.00;;
17773;SDS011;9011;33.236;-97.118;2022-09-09T04:21:54;3.85;;;3.40;;
17773;SDS011;9011;33.236;-97.118;2022-09-09T04:24:25;7.63;;;3.67;;
17773;SDS011;9011;33.236;-97.118;2022-09-09T04:26:54;4.15;;;3.33;;
17773;SDS011;9011;33.236;-97.118;2022-09-09T04:29:22;4.55;;;3.40;;
17773;SDS011;9011;33.236;-97.118;2022-09-09T04:31:51;5.20;;;3.72;;
17773;SDS011;9011;33.236;-97.118;2022-09-09T04:34:21;3.90;;;3.50;;
17773;SDS011;9011;33.236;-97.118;2022-09-09T04:36:50;6.70;;;3.42;;
17773;SDS011;9011;33.236;-97.118;2022-09-09T04:39:21;4.60;;;3.40;;
17773;SDS011;9011;33.236;-97.118;2022-09-09T04:41:50;4.63;;;3.40;;
17773;SDS011;9011;33.236;-97.118;2022-09-09T04:44:18;3.70;;;3.40;;
17773;SDS011;9011;33.236;-97.118;2022-09-09T04:46:47;5.28;;;3.55;;
17773;SDS011;9011;33.236;-97.118;2022-09-09T04:49:15;4.18;;;3.08;;
17773;SDS011;9011;33.236;-97.118;2022-09-09T04:51:45;4.30;;;3.63;;
17773;SDS011;9011;33.236;-97.118;2022-09-09T04:54:15;7.03;;;3.53;;
17773;SDS011;9011;33.236;-97.118;2022-09-09T04:56:44;5.03;;;3.22;;
17773;SDS011;9011;33.236;-97.118;2022-09-09T04:59:15;4.60;;;3.70;;
17773;SDS011;9011;33.236;-97.118;2022-09-09T05:01:44;4.70;;;3.75;;
17773;SDS011;9011;33.236;-97.118;2022-09-09T05:04:15;5.90;;;3.38;;
17773;SDS011;9011;33.236;-97.118;2022-09-09T05:07:01;4.18;;;3.20;;
17773;SDS011;9011;33.236;-97.118;2022-09-09T05:13:01;4.05;;;3.60;;
17773;SDS011;9011;33.236;-97.118;2022-09-09T05:15:59;3.92;;;3.60;;
17773;SDS011;9011;33.236;-97.118;2022-09-09T05:19:16;3.75;;;3.45;;
17773;SDS011;9011;33.236;-97.118;2022-09-09T05:21:49;6.60;;;3.92;;
17773;SDS011;9011;33.236;-97.118;2022-09-09T05:24:28;4.43;;;3.65;;
17773;SDS011;9011;33.236;-97.118;2022-09-09T05:26:59;6.68;;;3.97;;
17773;SDS011;9011;33.236;-97.118;2022-09-09T05:29:28;6.63;;;3.88;;
17773;SDS011;9011;33.236;-97.118;2022-09-09T05:31:58;7.72;;;4.10;;
17773;SDS011;9011;33.236;-97.118;2022-09-09T05:34:27;8.00;;;3.95;;
17773;SDS011;9011;33.236;-97.118;2022-09-09T05:36:56;7.60;;;4.10;;
17773;SDS011;9011;33.236;-97.118;2022-09-09T05:39:24;4.90;;;3.95;;
17773;SDS011;9011;33.236;-97.118;2022-09-09T05:41:55;5.20;;;3.50;;
17773;SDS011;9011;33.236;-97.118;2022-09-09T05:44:34;3.90;;;3.50;;
17773;SDS011;9011;33.236;-97.118;2022-09-09T05:47:03;4.22;;;3.83;;
17773;SDS011;9011;33.236;-97.118;2022-09-09T05:49:33;4.20;;;3.50;;
17773;SDS011;9011;33.236;-97.118;2022-09-09T05:52:05;4.03;;;3.72;;
17773;SDS011;9011;33.236;-97.118;2022-09-09T05:54:35;5.18;;;3.53;;
17773;SDS011;9011;33.236;-97.118;2022-09-09T05:57:05;4.25;;;3.90;;
17773;SDS011;9011;33.236;-97.118;2022-09-09T05:59:33;6.07;;;4.28;;
17773;SDS011;9011;33.236;-97.118;2022-09-09T06:02:15;4.30;;;3.70;;
17773;SDS011;9011;33.236;-97.118;2022-09-09T06:04:43;5.13;;;4.03;;
17773;SDS011;9011;33.236;-97.118;2022-09-09T06:07:15;5.25;;;3.80;;
17773;SDS011;9011;33.236;-97.118;2022-09-09T06:09:43;4.20;;;3.80;;
17773;SDS011;9011;33.236;-97.118;2022-09-09T06:12:18;4.18;;;3.78;;
17773;SDS011;9011;33.236;-97.118;2022-09-09T06:14:49;5.15;;;4.25;;
17773;SDS011;9011;33.236;-97.118;2022-09-09T06:17:18;4.50;;;3.70;;
17773;SDS011;9011;33.236;-97.118;2022-09-09T06:19:46;6.85;;;4.28;;
17773;SDS011;9011;33.236;-97.118;2022-09-09T06:22:15;5.53;;;4.25;;
17773;SDS011;9011;33.236;-97.118;2022-09-09T06:24:49;4.20;;;3.80;;
17773;SDS011;9011;33.236;-97.118;2022-09-09T06:27:20;4.90;;;4.03;;
17773;SDS011;9011;33.236;-97.118;2022-09-09T06:29:49;5.40;;;3.92;;
17773;SDS011;9011;33.236;-97.118;2022-09-09T06:32:21;5.57;;;4.15;;
17773;SDS011;9011;33.236;-97.118;2022-09-09T06:34:50;4.97;;;4.47;;
17773;SDS011;9011;33.236;-97.118;2022-09-09T06:37:18;4.15;;;3.70;;
17773;SDS011;9011;33.236;-97.118;2022-09-09T06:39:49;4.88;;;4.18;;
17773;SDS011;9011;33.236;-97.118;2022-09-09T06:42:18;4.22;;;3.85;;
17773;SDS011;9011;33.236;-97.118;2022-09-09T06:44:47;5.00;;;3.95;;
17773;SDS011;9011;33.236;-97.118;2022-09-09T06:47:17;5.55;;;4.85;;
17773;SDS011;9011;33.236;-97.118;2022-09-09T06:49:46;6.13;;;4.20;;
17773;SDS011;9011;33.236;-97.118;2022-09-09T06:52:14;4.85;;;4.32;;
17773;SDS011;9011;33.236;-97.118;2022-09-09T06:54:45;4.63;;;4.13;;
17773;SDS011;9011;33.236;-97.118;2022-09-09T06:57:16;5.40;;;4.30;;
17773;SDS011;9011;33.236;-97.118;2022-09-09T06:59:46;4.80;;;4.20;;
17773;SDS011;9011;33.236;-97.118;2022-09-09T07:02:15;6.55;;;4.25;;
17773;SDS011;9011;33.236;-97.118;2022-09-09T07:04:44;4.32;;;3.92;;
17773;SDS011;9011;33.236;-97.118;2022-09-09T07:07:17;5.75;;;4.25;;
17773;SDS011;9011;33.236;-97.118;2022-09-09T07:09:53;4.53;;;4.13;;
17773;SDS011;9011;33.236;-97.118;2022-09-09T07:12:26;4.50;;;4.10;;
17773;SDS011;9011;33.236;-97.118;2022-09-09T07:14:58;6.65;;;4.55;;
17773;SDS011;9011;33.236;-97.118;2022-09-09T07:17:27;4.93;;;4.43;;
17773;SDS011;9011;33.236;-97.118;2022-09-09T07:19:55;5.97;;;4.43;;
17773;SDS011;9011;33.236;-97.118;2022-09-09T07:22:24;4.65;;;4.25;;
17773;SDS011;9011;33.236;-97.118;2022-09-09T07:24:54;4.50;;;4.10;;
17773;SDS011;9011;33.236;-97.118;2022-09-09T07:27:22;7.13;;;4.32;;
17773;SDS011;9011;33.236;-97.118;2022-09-09T07:29:52;5.10;;;4.45;;
17773;SDS011;9011;33.236;-97.118;2022-09-09T07:32:22;4.57;;;4.20;;
17773;SDS011;9011;33.236;-97.118;2022-09-09T07:34:51;6.43;;;4.32;;
17773;SDS011;9011;33.236;-97.118;2022-09-09T07:37:26;4.97;;;3.97;;
17773;SDS011;9011;33.236;-97.118;2022-09-09T07:40:04;6.70;;;4.30;;
17773;SDS011;9011;33.236;-97.118;2022-09-09T07:42:42;4.47;;;4.07;;
17773;SDS011;9011;33.236;-97.118;2022-09-09T07:45:25;5.20;;;4.43;;
17773;SDS011;9011;33.236;-97.118;2022-09-09T07:48:00;6.95;;;4.80;;
17773;SDS011;9011;33.236;-97.118;2022-09-09T07:50:29;6.40;;;4.47;;
17773;SDS011;9011;33.236;-97.118;2022-09-09T07:52:57;4.90;;;4.38;;
17773;SDS011;9011;33.236;-97.118;2022-09-09T07:55:27;5.03;;;4.22;;
17773;SDS011;9011;33.236;-97.118;2022-09-09T07:57:56;5.25;;;4.72;;
17773;SDS011;9011;33.236;-97.118;2022-09-09T08:00:25;5.15;;;4.30;;
17773;SDS011;9011;33.236;-97.118;2022-09-09T08:02:54;7.00;;;4.72;;
17773;SDS011;9011;33.236;-97.118;2022-09-09T08:05:24;5.38;;;4.88;;
17773;SDS011;9011;33.236;-97.118;2022-09-09T08:07:52;5.82;;;5.25;;
17773;SDS011;9011;33.236;-97.118;2022-09-09T08:10:21;5.35;;;4.60;;
17773;SDS011;9011;33.236;-97.118;2022-09-09T08:12:49;5.75;;;5.18;;
17773;SDS011;9011;33.236;-97.118;2022-09-09T08:15:18;5.20;;;4.50;;
17773;SDS011;9011;33.236;-97.118;2022-09-09T08:17:50;5.47;;;4.97;;
17773;SDS011;9011;33.236;-97.118;2022-09-09T08:20:19;6.05;;;5.00;;
17773;SDS011;9011;33.236;-97.118;2022-09-09T08:22:54;5.72;;;5.15;;
17773;SDS011;9011;33.236;-97.118;2022-09-09T08:25:30;5.25;;;4.75;;
17773;SDS011;9011;33.236;-97.118;2022-09-09T08:28:00;5.10;;;4.60;;
17773;SDS011;9011;33.236;-97.118;2022-09-09T08:30:29;5.22;;;4.65;;
17773;SDS011;9011;33.236;-97.118;2022-09-09T08:32:57;5.88;;;5.28;;
17773;SDS011;9011;33.236;-97.118;2022-09-09T08:35:29;5.38;;;4.90;;
17773;SDS011;9011;33.236;-97.118;2022-09-09T08:37:59;5.30;;;4.80;;
17773;SDS011;9011;33.236;-97.118;2022-09-09T08:40:28;6.78;;;4.80;;
17773;SDS011;9011;33.236;-97.118;2022-09-09T08:43:01;5.90;;;5.30;;
17773;SDS011;9011;33.236;-97.118;2022-09-09T08:45:32;4.55;;;4.15;;
17773;SDS011;9011;33.236;-97.118;2022-09-09T08:48:16;6.13;;;5.53;;
17773;SDS011;9011;33.236;-97.118;2022-09-09T08:50:57;5.25;;;4.75;;
17773;SDS011;9011;33.236;-97.118;2022-09-09T08:53:33;5.35;;;4.85;;
17773;SDS011;9011;33.236;-97.118;2022-09-09T08:56:14;5.18;;;4.70;;
17773;SDS011;9011;33.236;-97.118;2022-09-09T08:59:03;5.55;;;5.03;;
17773;SDS011;9011;33.236;-97.118;2022-09-09T09:01:45;5.43;;;4.93;;
17773;SDS011;9011;33.236;-97.118;2022-09-09T09:04:32;12.13;;;5.03;;
17773;SDS011;9011;33.236;-97.118;2022-09-09T09:07:12;5.07;;;4.68;;
17773;SDS011;9011;33.236;-97.118;2022-09-09T09:09:53;4.80;;;4.30;;
17773;SDS011;9011;33.236;-97.118;2022-09-09T09:12:28;5.57;;;4.93;;
17773;SDS011;9011;33.236;-97.118;2022-09-09T09:15:02;6.00;;;5.30;;
17773;SDS011;9011;33.236;-97.118;2022-09-09T09:17:43;5.13;;;4.63;;
17773;SDS011;9011;33.236;-97.118;2022-09-09T09:20:12;5.25;;;4.75;;
17773;SDS011;9011;33.236;-97.118;2022-09-09T09:22:44;5.85;;;5.00;;
17773;SDS011;9011;33.236;-97.118;2022-09-09T09:25:18;7.05;;;4.70;;
17773;SDS011;9011;33.236;-97.118;2022-09-09T09:27:50;5.53;;;5.03;;
17773;SDS011;9011;33.236;-97.118;2022-09-09T09:30:26;5.97;;;4.82;;
17773;SDS011;9011;33.236;-97.118;2022-09-09T09:33:00;4.85;;;4.43;;
17773;SDS011;9011;33.236;-97.118;2022-09-09T09:35:32;6.10;;;5.53;;
17773;SDS011;9011;33.236;-97.118;2022-09-09T09:38:00;6.65;;;5.40;;
17773;SDS011;9011;33.236;-97.118;2022-09-09T09:40:53;5.25;;;4.72;;
17773;SDS011;9011;33.236;-97.118;2022-09-09T09:43:24;5.80;;;4.90;;
17773;SDS011;9011;33.236;-97.118;2022-09-09T09:45:55;4.95;;;4.55;;
17773;SDS011;9011;33.236;-97.118;2022-09-09T09:48:27;5.68;;;4.80;;
17773;SDS011;9011;33.236;-97.118;2022-09-09T09:50:56;5.90;;;4.85;;
17773;SDS011;9011;33.236;-97.118;2022-09-09T09:53:33;5.00;;;4.60;;
17773;SDS011;9011;33.236;-97.118;2022-09-09T09:56:05;6.50;;;4.88;;
17773;SDS011;9011;33.236;-97.118;2022-09-09T09:58:38;6.97;;;5.38;;
17773;SDS011;9011;33.236;-97.118;2022-09-09T10:01:19;4.95;;;4.45;;
17773;SDS011;9011;33.236;-97.118;2022-09-09T10:03:50;5.25;;;4.75;;
17773;SDS011;9011;33.236;-97.118;2022-09-09T10:06:32;5.32;;;4.68;;
17773;SDS011;9011;33.236;-97.118;2022-09-09T10:09:18;5.65;;;4.70;;
17773;SDS011;9011;33.236;-97.118;2022-09-09T10:11:55;5.00;;;4.55;;
17773;SDS011;9011;33.236;-97.118;2022-09-09T10:14:31;4.97;;;4.50;;
17773;SDS011;9011;33.236;-97.118;2022-09-09T10:17:12;5.18;;;4.57;;
17773;SDS011;9011;33.236;-97.118;2022-09-09T10:19:50;6.32;;;5.53;;
17773;SDS011;9011;33.236;-97.118;2022-09-09T10:22:30;5.45;;;4.95;;
17773;SDS011;9011;33.236;-97.118;2022-09-09T10:25:16;5.10;;;4.68;;
17773;SDS011;9011;33.236;-97.118;2022-09-09T10:30:58;5.57;;;5.03;;
17773;SDS011;9011;33.236;-97.118;2022-09-09T10:33:38;6.63;;;4.72;;
17773;SDS011;9011;33.236;-97.118;2022-09-09T10:36:17;5.05;;;4.55;;
17773;SDS011;9011;33.236;-97.118;2022-09-09T10:38:48;6.07;;;4.70;;
17773;SDS011;9011;33.236;-97.118;2022-09-09T10:41:22;5.68;;;4.85;;
17773;SDS011;9011;33.236;-97.118;2022-09-09T10:44:20;6.15;;;4.78;;
17773;SDS011;9011;33.236;-97.118;2022-09-09T10:50:04;6.80;;;5.05;;
17773;SDS011;9011;33.236;-97.118;2022-09-09T10:52:46;5.18;;;4.68;;
17773;SDS011;9011;33.236;-97.118;2022-09-09T10:55:22;5.85;;;5.20;;
17773;SDS011;9011;33.236;-97.118;2022-09-09T10:57:54;7.75;;;5.30;;
17773;SDS011;9011;33.236;-97.118;2022-09-09T11:00:27;5.50;;;4.90;;
17773;SDS011;9011;33.236;-97.118;2022-09-09T11:03:05;5.70;;;5.07;;
17773;SDS011;9011;33.236;-97.118;2022-09-09T11:05:39;8.10;;;5.45;;
17773;SDS011;9011;33.236;-97.118;2022-09-09T11:08:12;5.22;;;4.78;;
17773;SDS011;9011;33.236;-97.118;2022-09-09T11:10:45;4.78;;;4.38;;
17773;SDS011;9011;33.236;-97.118;2022-09-09T11:13:23;6.20;;;5.15;;
17773;SDS011;9011;33.236;-97.118;2022-09-09T11:15:59;6.10;;;4.85;;
17773;SDS011;9011;33.236;-97.118;2022-09-09T11:18:32;5.53;;;5.03;;
17773;SDS011;9011;33.236;-97.118;2022-09-09T11:21:08;15.13;;;5.47;;
17773;SDS011;9011;33.236;-97.118;2022-09-09T11:23:45;9.32;;;4.82;;
17773;SDS011;9011;33.236;-97.118;2022-09-09T11:26:18;5.88;;;5.28;;
17773;SDS011;9011;33.236;-97.118;2022-09-09T11:29:00;9.52;;;5.40;;
17773;SDS011;9011;33.236;-97.118;2022-09-09T11:31:46;7.65;;;4.95;;
17773;SDS011;9011;33.236;-97.118;2022-09-09T11:34:33;5.03;;;4.53;;
17773;SDS011;9011;33.236;-97.118;2022-09-09T11:37:10;6.95;;;5.40;;
17773;SDS011;9011;33.236;-97.118;2022-09-09T11:39:51;7.30;;;6.03;;
17773;SDS011;9011;33.236;-97.118;2022-09-09T11:42:44;5.50;;;4.80;;
17773;SDS011;9011;33.236;-97.118;2022-09-09T11:45:22;6.60;;;5.28;;
17773;SDS011;9011;33.236;-97.118;2022-09-09T11:47:56;6.10;;;5.50;;
17773;SDS011;9011;33.236;-97.118;2022-09-09T11:50:29;6.90;;;5.20;;
17773;SDS011;9011;33.236;-97.118;2022-09-09T11:53:05;9.25;;;5.93;;
17773;SDS011;9011;33.236;-97.118;2022-09-09T11:55:48;6.57;;;5.05;;
17773;SDS011;9011;33.236;-97.118;2022-09-09T11:58:33;6.78;;;5.13;;
17773;SDS011;9011;33.236;-97.118;2022-09-09T12:01:33;6.40;;;5.00;;
17773;SDS011;9011;33.236;-97.118;2022-09-09T12:04:09;7.22;;;4.82;;
17773;SDS011;9011;33.236;-97.118;2022-09-09T12:06:45;8.23;;;6.03;;
17773;SDS011;9011;33.236;-97.118;2022-09-09T12:09:21;6.32;;;5.40;;
17773;SDS011;9011;33.236;-97.118;2022-09-09T12:12:06;6.30;;;5.55;;
17773;SDS011;9011;33.236;-97.118;2022-09-09T12:14:58;6.45;;;5.45;;
17773;SDS011;9011;33.236;-97.118;2022-09-09T12:17:30;7.50;;;5.45;;
17773;SDS011;9011;33.236;-97.118;2022-09-09T12:20:11;8.98;;;5.82;;
17773;SDS011;9011;33.236;-97.118;2022-09-09T12:22:50;9.80;;;5.35;;
17773;SDS011;9011;33.236;-97.118;2022-09-09T12:25:48;7.60;;;5.55;;
17773;SDS011;9011;33.236;-97.118;2022-09-09T12:28:26;9.02;;;5.35;;
17773;SDS011;9011;33.236;-97.118;2022-09-09T12:31:06;6.43;;;5.75;;
17773;SDS011;9011;33.236;-97.118;2022-09-09T12:33:43;7.05;;;5.25;;
17773;SDS011;9011;33.236;-97.118;2022-09-09T12:36:15;6.40;;;5.60;;
17773;SDS011;9011;33.236;-97.118;2022-09-09T12:38:46;7.35;;;5.95;;
17773;SDS011;9011;33.236;-97.118;2022-09-09T12:41:20;8.90;;;5.90;;
17773;SDS011;9011;33.236;-97.118;2022-09-09T12:43:50;6.18;;;5.53;;
17773;SDS011;9011;33.236;-97.118;2022-09-09T12:46:21;7.22;;;5.88;;
17773;SDS011;9011;33.236;-97.118;2022-09-09T12:49:02;10.18;;;6.47;;
17773;SDS011;9011;33.236;-97.118;2022-09-09T12:51:33;12.93;;;6.07;;
17773;SDS011;9011;33.236;-97.118;2022-09-09T12:54:03;8.48;;;5.88;;
17773;SDS011;9011;33.236;-97.118;2022-09-09T12:56:31;16.48;;;7.57;;
17773;SDS011;9011;33.236;-97.118;2022-09-09T12:59:00;13.70;;;6.75;;
17773;SDS011;9011;33.236;-97.118;2022-09-09T13:01:29;14.05;;;6.70;;
17773;SDS011;9011;33.236;-97.118;2022-09-09T13:03:58;7.35;;;5.90;;
17773;SDS011;9011;33.236;-97.118;2022-09-09T13:06:27;8.57;;;6.25;;
17773;SDS011;9011;33.236;-97.118;2022-09-09T13:08:59;8.77;;;6.68;;
17773;SDS011;9011;33.236;-97.118;2022-09-09T13:11:30;6.95;;;6.35;;
17773;SDS011;9011;33.236;-97.118;2022-09-09T13:14:04;7.25;;;6.45;;
17773;SDS011;9011;33.236;-97.118;2022-09-09T13:16:34;7.15;;;6.43;;
17773;SDS011;9011;33.236;-97.118;2022-09-09T13:19:06;7.57;;;6.18;;
17773;SDS011;9011;33.236;-97.118;2022-09-09T13:21:37;9.07;;;6.70;;
17773;SDS011;9011;33.236;-97.118;2022-09-09T13:24:21;8.65;;;6.80;;
17773;SDS011;9011;33.236;-97.118;2022-09-09T13:26:56;6.88;;;6.28;;
17773;SDS011;9011;33.236;-97.118;2022-09-09T13:29:25;9.60;;;7.05;;
17773;SDS011;9011;33.236;-97.118;2022-09-09T13:31:54;7.22;;;6.38;;
17773;SDS011;9011;33.236;-97.118;2022-09-09T13:34:31;6.97;;;6.25;;
17773;SDS011;9011;33.236;-97.118;2022-09-09T13:37:00;7.45;;;5.97;;
17773;SDS011;9011;33.236;-97.118;2022-09-09T13:39:32;7.65;;;6.38;;
17773;SDS011;9011;33.236;-97.118;2022-09-09T13:42:03;7.32;;;6.28;;
17773;SDS011;9011;33.236;-97.118;2022-09-09T13:44:34;8.27;;;6.00;;
17773;SDS011;9011;33.236;-97.118;2022-09-09T13:47:17;7.47;;;6.38;;
17773;SDS011;9011;33.236;-97.118;2022-09-09T13:49:47;6.47;;;5.75;;
17773;SDS011;9011;33.236;-97.118;2022-09-09T13:52:16;8.18;;;6.03;;
17773;SDS011;9011;33.236;-97.118;2022-09-09T13:54:48;6.85;;;5.82;;
17773;SDS011;9011;33.236;-97.118;2022-09-09T13:57:17;7.47;;;6.22;;
17773;SDS011;9011;33.236;-97.118;2022-09-09T13:59:47;6.13;;;5.53;;
17773;SDS011;9011;33.236;-97.118;2022-09-09T14:02:16;7.47;;;5.53;;
17773;SDS011;9011;33.236;-97.118;2022-09-09T14:04:46;7.78;;;6.03;;
17773;SDS011;9011;33.236;-97.118;2022-09-09T14:07:16;8.35;;;5.78;;
17773;SDS011;9011;33.236;-97.118;2022-09-09T14:09:45;6.80;;;5.72;;
17773;SDS011;9011;33.236;-97.118;2022-09-09T14:12:17;6.28;;;5.35;;
17773;SDS011;9011;33.236;-97.118;2022-09-09T14:14:45;7.68;;;6.57;;
17773;SDS011;9011;33.236;-97.118;2022-09-09T14:17:13;6.80;;;4.97;;
17773;SDS011;9011;33.236;-97.118;2022-09-09T14:19:42;8.68;;;5.35;;
17773;SDS011;9011;33.236;-97.118;2022-09-09T14:22:11;7.72;;;5.75;;
17773;SDS011;9011;33.236;-97.118;2022-09-09T14:24:39;5.80;;;5.20;;
17773;SDS011;9011;33.236;-97.118;2022-09-09T14:27:08;6.13;;;5.10;;
17773;SDS011;9011;33.236;-97.118;2022-09-09T14:29:38;5.88;;;4.97;;
17773;SDS011;9011;33.236;-97.118;2022-09-09T14:32:06;6.05;;;4.97;;
17773;SDS011;9011;33.236;-97.118;2022-09-09T14:34:34;8.05;;;5.25;;
17773;SDS011;9011;33.236;-97.118;2022-09-09T14:37:03;7.68;;;4.55;;
17773;SDS011;9011;33.236;-97.118;2022-09-09T14:39:32;5.22;;;4.57;;
17773;SDS011;9011;33.236;-97.118;2022-09-09T14:42:00;5.45;;;4.68;;
17773;SDS011;9011;33.236;-97.118;2022-09-09T14:44:28;5.47;;;4.97;;
17773;SDS011;9011;33.236;-97.118;2022-09-09T14:46:58;5.00;;;4.60;;
17773;SDS011;9011;33.236;-97.118;2022-09-09T14:49:27;5.70;;;4.88;;
17773;SDS011;9011;33.236;-97.118;2022-09-09T14:51:55;5.25;;;4.75;;
17773;SDS011;9011;33.236;-97.118;2022-09-09T14:54:23;6.50;;;4.65;;
17773;SDS011;9011;33.236;-97.118;2022-09-09T14:56:52;5.78;;;4.60;;
17773;SDS011;9011;33.236;-97.118;2022-09-09T14:59:20;5.47;;;4.95;;
17773;SDS011;9011;33.236;-97.118;2022-09-09T15:01:49;6.03;;;4.75;;
17773;SDS011;9011;33.236;-97.118;2022-09-09T15:04:18;5.43;;;4.35;;
17773;SDS011;9011;33.236;-97.118;2022-09-09T15:06:47;5.53;;;4.70;;
17773;SDS011;9011;33.236;-97.118;2022-09-09T15:09:17;6.50;;;4.10;;
17773;SDS011;9011;33.236;-97.118;2022-09-09T15:11:46;8.77;;;4.93;;
17773;SDS011;9011;33.236;-97.118;2022-09-09T15:14:14;5.20;;;4.70;;
17773;SDS011;9011;33.236;-97.118;2022-09-09T15:16:42;5.03;;;4.35;;
17773;SDS011;9011;33.236;-97.118;2022-09-09T15:19:11;5.22;;;4.72;;
17773;SDS011;9011;33.236;-97.118;2022-09-09T15:21:40;5.80;;;4.25;;
17773;SDS011;9011;33.236;-97.118;2022-09-09T15:24:09;5.40;;;4.55;;
17773;SDS011;9011;33.236;-97.118;2022-09-09T15:26:39;4.55;;;4.13;;